sensor_id;sensor_type;location;lat;lon;timestamp;P1;durP1;ratioP1;P2;durP2;ratioP2
30036;SDS011;36325;51.512;-0.382;2023-04-22T00:00:17;107.50;;;40.55;;
30036;SDS011;36325;51.512;-0.382;2023-04-22T00:02:45;103.60;;;39.15;;
30036;SDS011;36325;51.512;-0.382;2023-04-22T00:05:12;105.32;;;41.63;;
30036;SDS011;36325;51.512;-0.382;2023-04-22T00:07:42;104.07;;;40.05;;
30036;SDS011;36325;51.512;-0.382;2023-04-22T00:10:09;106.68;;;39.15;;
30036;SDS011;36325;51.512;-0.382;2023-04-22T00:12:37;122.78;;;42.58;;
30036;SDS011;36325;51.512;-0.382;2023-04-22T00:15:04;111.13;;;41.35;;
30036;SDS011;36325;51.512;-0.382;2023-04-22T00:17:32;110.25;;;42.28;;
30036;SDS011;36325;51.512;-0.382;2023-04-22T00:19:59;102.50;;;38.88;;
30036;SDS011;36325;51.512;-0.382;2023-04-22T00:22:27;110.00;;;41.08;;
30036;SDS011;36325;51.512;-0.382;2023-04-22T00:24:54;109.40;;;40.13;;
30036;SDS011;36325;51.512;-0.382;2023-04-22T00:27:21;100.72;;;39.55;;
30036;SDS011;36325;51.512;-0.382;2023-04-22T00:29:48;98.43;;;39.55;;
30036;SDS011;36325;51.512;-0.382;2023-04-22T00:32:15;96.60;;;36.25;;
30036;SDS011;36325;51.512;-0.382;2023-04-22T00:34:43;100.38;;;39.72;;
30036;SDS011;36325;51.512;-0.382;2023-04-22T00:37:10;112.28;;;42.05;;
30036;SDS011;36325;51.512;-0.382;2023-04-22T00:39:37;127.20;;;43.85;;
30036;SDS011;36325;51.512;-0.382;2023-04-22T00:42:06;125.72;;;43.55;;
30036;SDS011;36325;51.512;-0.382;2023-04-22T00:44:34;107.30;;;41.67;;
30036;SDS011;36325;51.512;-0.382;2023-04-22T00:47:02;119.32;;;42.88;;
30036;SDS011;36325;51.512;-0.382;2023-04-22T00:49:30;117.70;;;43.03;;
30036;SDS011;36325;51.512;-0.382;2023-04-22T00:51:57;101.30;;;39.90;;
30036;SDS011;36325;51.512;-0.382;2023-04-22T00:54:24;116.72;;;42.05;;
30036;SDS011;36325;51.512;-0.382;2023-04-22T00:56:51;110.57;;;40.90;;
30036;SDS011;36325;51.512;-0.382;2023-04-22T00:59:19;108.75;;;40.05;;
30036;SDS011;36325;51.512;-0.382;2023-04-22T01:01:46;120.57;;;44.20;;
30036;SDS011;36325;51.512;-0.382;2023-04-22T01:04:14;112.32;;;44.20;;
30036;SDS011;36325;51.512;-0.382;2023-04-22T01:06:42;115.03;;;41.75;;
30036;SDS011;36325;51.512;-0.382;2023-04-22T01:09:09;110.45;;;42.08;;
30036;SDS011;36325;51.512;-0.382;2023-04-22T01:11:38;115.40;;;44.58;;
30036;SDS011;36325;51.512;-0.382;2023-04-22T01:14:07;117.93;;;43.50;;
30036;SDS011;36325;51.512;-0.382;2023-04-22T01:16:34;104.43;;;38.08;;
30036;SDS011;36325;51.512;-0.382;2023-04-22T01:19:04;105.88;;;39.83;;
30036;SDS011;36325;51.512;-0.382;2023-04-22T01:21:34;107.40;;;38.47;;
30036;SDS011;36325;51.512;-0.382;2023-04-22T01:24:01;112.30;;;40.15;;
30036;SDS011;36325;51.512;-0.382;2023-04-22T01:26:29;104.20;;;39.00;;
30036;SDS011;36325;51.512;-0.382;2023-04-22T01:28:57;109.43;;;38.67;;
30036;SDS011;36325;51.512;-0.382;2023-04-22T01:31:26;106.25;;;39.83;;
30036;SDS011;36325;51.512;-0.382;2023-04-22T01:33:56;109.93;;;39.83;;
30036;SDS011;36325;51.512;-0.382;2023-04-22T01:36:24;104.82;;;39.92;;
30036;SDS011;36325;51.512;-0.382;2023-04-22T01:38:52;111.63;;;39.60;;
30036;SDS011;36325;51.512;-0.382;2023-04-22T01:41:20;110.55;;;41.08;;
30036;SDS011;36325;51.512;-0.382;2023-04-22T01:43:47;110.80;;;39.97;;
30036;SDS011;36325;51.512;-0.382;2023-04-22T01:46:15;104.63;;;39.30;;
30036;SDS011;36325;51.512;-0.382;2023-04-22T01:48:43;100.85;;;38.35;;
30036;SDS011;36325;51.512;-0.382;2023-04-22T01:51:16;100.18;;;38.08;;
30036;SDS011;36325;51.512;-0.382;2023-04-22T01:53:47;106.57;;;38.10;;
30036;SDS011;36325;51.512;-0.382;2023-04-22T01:56:14;99.90;;;37.58;;
30036;SDS011;36325;51.512;-0.382;2023-04-22T01:58:42;105.78;;;39.03;;
30036;SDS011;36325;51.512;-0.382;2023-04-22T02:01:12;94.47;;;38.13;;
30036;SDS011;36325;51.512;-0.382;2023-04-22T02:03:40;109.18;;;39.05;;
30036;SDS011;36325;51.512;-0.382;2023-04-22T02:06:09;104.15;;;39.55;;
30036;SDS011;36325;51.512;-0.382;2023-04-22T02:08:36;102.40;;;39.50;;
30036;SDS011;36325;51.512;-0.382;2023-04-22T02:11:04;110.18;;;39.25;;
30036;SDS011;36325;51.512;-0.382;2023-04-22T02:13:35;116.10;;;42.00;;
30036;SDS011;36325;51.512;-0.382;2023-04-22T02:16:04;109.20;;;38.92;;
30036;SDS011;36325;51.512;-0.382;2023-04-22T02:18:32;116.95;;;41.60;;
30036;SDS011;36325;51.512;-0.382;2023-04-22T02:20:59;124.22;;;40.03;;
30036;SDS011;36325;51.512;-0.382;2023-04-22T02:23:27;102.65;;;38.38;;
30036;SDS011;36325;51.512;-0.382;2023-04-22T02:25:55;107.82;;;37.78;;
30036;SDS011;36325;51.512;-0.382;2023-04-22T02:28:22;114.90;;;39.25;;
30036;SDS011;36325;51.512;-0.382;2023-04-22T02:30:50;132.07;;;42.25;;
30036;SDS011;36325;51.512;-0.382;2023-04-22T02:33:17;128.88;;;42.85;;
30036;SDS011;36325;51.512;-0.382;2023-04-22T02:35:44;120.43;;;42.72;;
30036;SDS011;36325;51.512;-0.382;2023-04-22T02:38:16;117.03;;;41.47;;
30036;SDS011;36325;51.512;-0.382;2023-04-22T02:40:44;114.40;;;39.55;;
30036;SDS011;36325;51.512;-0.382;2023-04-22T02:43:12;123.25;;;43.60;;
30036;SDS011;36325;51.512;-0.382;2023-04-22T02:45:40;111.13;;;42.45;;
30036;SDS011;36325;51.512;-0.382;2023-04-22T02:48:07;132.18;;;43.22;;
30036;SDS011;36325;51.512;-0.382;2023-04-22T02:50:35;118.63;;;42.20;;
30036;SDS011;36325;51.512;-0.382;2023-04-22T02:53:03;112.90;;;39.38;;
30036;SDS011;36325;51.512;-0.382;2023-04-22T02:55:30;117.65;;;41.65;;
30036;SDS011;36325;51.512;-0.382;2023-04-22T02:57:58;115.20;;;41.90;;
30036;SDS011;36325;51.512;-0.382;2023-04-22T03:00:25;129.05;;;41.33;;
30036;SDS011;36325;51.512;-0.382;2023-04-22T03:02:53;117.07;;;40.65;;
30036;SDS011;36325;51.512;-0.382;2023-04-22T03:05:25;102.63;;;39.60;;
30036;SDS011;36325;51.512;-0.382;2023-04-22T03:07:53;107.35;;;38.67;;
30036;SDS011;36325;51.512;-0.382;2023-04-22T03:10:20;118.47;;;41.00;;
30036;SDS011;36325;51.512;-0.382;2023-04-22T03:12:49;110.57;;;39.58;;
30036;SDS011;36325;51.512;-0.382;2023-04-22T03:15:17;99.20;;;37.63;;
30036;SDS011;36325;51.512;-0.382;2023-04-22T03:17:46;111.10;;;40.17;;
30036;SDS011;36325;51.512;-0.382;2023-04-22T03:20:14;110.70;;;41.03;;
30036;SDS011;36325;51.512;-0.382;2023-04-22T03:22:42;121.10;;;40.72;;
30036;SDS011;36325;51.512;-0.382;2023-04-22T03:25:11;110.18;;;39.35;;
30036;SDS011;36325;51.512;-0.382;2023-04-22T03:27:43;117.72;;;40.60;;
30036;SDS011;36325;51.512;-0.382;2023-04-22T03:30:11;115.15;;;41.85;;
30036;SDS011;36325;51.512;-0.382;2023-04-22T03:32:38;113.53;;;39.70;;
30036;SDS011;36325;51.512;-0.382;2023-04-22T03:35:19;104.75;;;38.03;;
30036;SDS011;36325;51.512;-0.382;2023-04-22T03:37:48;123.13;;;42.05;;
30036;SDS011;36325;51.512;-0.382;2023-04-22T03:42:48;121.45;;;39.00;;
30036;SDS011;36325;51.512;-0.382;2023-04-22T03:45:17;116.65;;;40.15;;
30036;SDS011;36325;51.512;-0.382;2023-04-22T03:47:51;124.28;;;41.22;;
30036;SDS011;36325;51.512;-0.382;2023-04-22T03:50:24;130.25;;;41.40;;
30036;SDS011;36325;51.512;-0.382;2023-04-22T03:52:53;136.60;;;41.42;;
30036;SDS011;36325;51.512;-0.382;2023-04-22T03:55:20;111.60;;;41.13;;
30036;SDS011;36325;51.512;-0.382;2023-04-22T03:57:50;125.75;;;41.78;;
30036;SDS011;36325;51.512;-0.382;2023-04-22T04:00:18;177.30;;;43.70;;
30036;SDS011;36325;51.512;-0.382;2023-04-22T04:02:55;126.68;;;42.00;;
30036;SDS011;36325;51.512;-0.382;2023-04-22T04:05:26;141.27;;;45.72;;
30036;SDS011;36325;51.512;-0.382;2023-04-22T04:08:01;128.80;;;42.83;;
30036;SDS011;36325;51.512;-0.382;2023-04-22T04:10:33;131.27;;;46.10;;
30036;SDS011;36325;51.512;-0.382;2023-04-22T04:13:02;129.95;;;43.72;;
30036;SDS011;36325;51.512;-0.382;2023-04-22T04:15:38;131.52;;;44.75;;
30036;SDS011;36325;51.512;-0.382;2023-04-22T04:18:06;120.80;;;42.33;;
30036;SDS011;36325;51.512;-0.382;2023-04-22T04:20:35;122.40;;;42.03;;
30036;SDS011;36325;51.512;-0.382;2023-04-22T04:23:02;130.20;;;43.97;;
30036;SDS011;36325;51.512;-0.382;2023-04-22T04:25:30;121.03;;;41.78;;
30036;SDS011;36325;51.512;-0.382;2023-04-22T04:28:08;118.25;;;40.72;;
30036;SDS011;36325;51.512;-0.382;2023-04-22T04:30:37;101.97;;;36.72;;
30036;SDS011;36325;51.512;-0.382;2023-04-22T04:33:07;106.78;;;37.97;;
30036;SDS011;36325;51.512;-0.382;2023-04-22T04:35:37;100.43;;;37.10;;
30036;SDS011;36325;51.512;-0.382;2023-04-22T04:38:07;116.95;;;36.95;;
30036;SDS011;36325;51.512;-0.382;2023-04-22T04:40:35;119.78;;;36.85;;
30036;SDS011;36325;51.512;-0.382;2023-04-22T04:43:10;105.03;;;37.58;;
30036;SDS011;36325;51.512;-0.382;2023-04-22T04:45:46;112.53;;;38.92;;
30036;SDS011;36325;51.512;-0.382;2023-04-22T04:48:19;124.53;;;41.72;;
30036;SDS011;36325;51.512;-0.382;2023-04-22T04:50:54;110.88;;;38.50;;
30036;SDS011;36325;51.512;-0.382;2023-04-22T04:53:25;97.90;;;37.63;;
30036;SDS011;36325;51.512;-0.382;2023-04-22T04:55:54;95.55;;;36.38;;
30036;SDS011;36325;51.512;-0.382;2023-04-22T04:58:25;98.75;;;36.10;;
30036;SDS011;36325;51.512;-0.382;2023-04-22T05:01:11;102.88;;;34.78;;
30036;SDS011;36325;51.512;-0.382;2023-04-22T05:03:41;97.43;;;35.80;;
30036;SDS011;36325;51.512;-0.382;2023-04-22T05:06:08;87.75;;;34.22;;
30036;SDS011;36325;51.512;-0.382;2023-04-22T05:08:38;91.13;;;36.08;;
30036;SDS011;36325;51.512;-0.382;2023-04-22T05:11:08;88.65;;;34.83;;
30036;SDS011;36325;51.512;-0.382;2023-04-22T05:13:35;87.43;;;33.22;;
30036;SDS011;36325;51.512;-0.382;2023-04-22T05:16:05;79.50;;;31.98;;
30036;SDS011;36325;51.512;-0.382;2023-04-22T05:18:33;84.55;;;33.97;;
30036;SDS011;36325;51.512;-0.382;2023-04-22T05:21:04;80.57;;;31.35;;
30036;SDS011;36325;51.512;-0.382;2023-04-22T05:23:33;86.45;;;31.30;;
30036;SDS011;36325;51.512;-0.382;2023-04-22T05:26:03;84.80;;;32.90;;
30036;SDS011;36325;51.512;-0.382;2023-04-22T05:28:32;85.47;;;34.28;;
30036;SDS011;36325;51.512;-0.382;2023-04-22T05:31:00;94.53;;;33.97;;
30036;SDS011;36325;51.512;-0.382;2023-04-22T05:33:30;92.07;;;35.60;;
30036;SDS011;36325;51.512;-0.382;2023-04-22T05:35:58;93.35;;;31.55;;
30036;SDS011;36325;51.512;-0.382;2023-04-22T05:38:25;97.63;;;34.90;;
30036;SDS011;36325;51.512;-0.382;2023-04-22T05:40:54;97.10;;;34.55;;
30036;SDS011;36325;51.512;-0.382;2023-04-22T05:43:22;101.55;;;37.40;;
30036;SDS011;36325;51.512;-0.382;2023-04-22T05:45:56;93.72;;;35.55;;
30036;SDS011;36325;51.512;-0.382;2023-04-22T05:48:24;94.88;;;35.05;;
30036;SDS011;36325;51.512;-0.382;2023-04-22T05:50:57;89.70;;;34.40;;
30036;SDS011;36325;51.512;-0.382;2023-04-22T05:53:26;87.82;;;33.85;;
30036;SDS011;36325;51.512;-0.382;2023-04-22T05:55:54;89.85;;;35.95;;
30036;SDS011;36325;51.512;-0.382;2023-04-22T05:58:22;86.82;;;32.72;;
30036;SDS011;36325;51.512;-0.382;2023-04-22T06:00:52;95.00;;;34.85;;
30036;SDS011;36325;51.512;-0.382;2023-04-22T06:03:45;86.43;;;34.20;;
30036;SDS011;36325;51.512;-0.382;2023-04-22T06:06:13;92.75;;;34.63;;
30036;SDS011;36325;51.512;-0.382;2023-04-22T06:08:40;99.30;;;36.65;;
30036;SDS011;36325;51.512;-0.382;2023-04-22T06:11:09;100.03;;;37.22;;
30036;SDS011;36325;51.512;-0.382;2023-04-22T06:13:37;89.40;;;35.83;;
30036;SDS011;36325;51.512;-0.382;2023-04-22T06:16:05;98.45;;;37.40;;
30036;SDS011;36325;51.512;-0.382;2023-04-22T06:18:32;100.72;;;39.67;;
30036;SDS011;36325;51.512;-0.382;2023-04-22T06:21:04;97.40;;;38.03;;
30036;SDS011;36325;51.512;-0.382;2023-04-22T06:23:31;107.38;;;38.78;;
30036;SDS011;36325;51.512;-0.382;2023-04-22T06:25:58;86.38;;;33.35;;
30036;SDS011;36325;51.512;-0.382;2023-04-22T06:28:27;99.45;;;36.25;;
30036;SDS011;36325;51.512;-0.382;2023-04-22T06:31:00;91.25;;;35.67;;
30036;SDS011;36325;51.512;-0.382;2023-04-22T06:33:28;93.47;;;37.70;;
30036;SDS011;36325;51.512;-0.382;2023-04-22T06:35:56;85.95;;;33.70;;
30036;SDS011;36325;51.512;-0.382;2023-04-22T06:38:25;90.43;;;35.15;;
30036;SDS011;36325;51.512;-0.382;2023-04-22T06:41:10;89.35;;;38.00;;
30036;SDS011;36325;51.512;-0.382;2023-04-22T06:43:42;92.30;;;35.20;;
30036;SDS011;36325;51.512;-0.382;2023-04-22T06:46:30;88.78;;;35.55;;
30036;SDS011;36325;51.512;-0.382;2023-04-22T06:49:09;95.55;;;38.30;;
30036;SDS011;36325;51.512;-0.382;2023-04-22T06:52:04;86.35;;;35.97;;
30036;SDS011;36325;51.512;-0.382;2023-04-22T06:54:32;90.97;;;37.80;;
30036;SDS011;36325;51.512;-0.382;2023-04-22T06:57:00;89.72;;;37.15;;
30036;SDS011;36325;51.512;-0.382;2023-04-22T06:59:28;81.47;;;36.35;;
30036;SDS011;36325;51.512;-0.382;2023-04-22T07:01:55;84.97;;;36.25;;
30036;SDS011;36325;51.512;-0.382;2023-04-22T07:04:22;89.40;;;36.78;;
30036;SDS011;36325;51.512;-0.382;2023-04-22T07:06:50;99.22;;;39.17;;
30036;SDS011;36325;51.512;-0.382;2023-04-22T07:09:17;91.65;;;37.65;;
30036;SDS011;36325;51.512;-0.382;2023-04-22T07:11:45;101.32;;;40.78;;
30036;SDS011;36325;51.512;-0.382;2023-04-22T07:14:16;99.50;;;38.80;;
30036;SDS011;36325;51.512;-0.382;2023-04-22T07:16:43;88.32;;;38.72;;
30036;SDS011;36325;51.512;-0.382;2023-04-22T07:19:11;93.20;;;39.05;;
30036;SDS011;36325;51.512;-0.382;2023-04-22T07:21:38;96.47;;;38.88;;
30036;SDS011;36325;51.512;-0.382;2023-04-22T07:24:06;98.03;;;38.78;;
30036;SDS011;36325;51.512;-0.382;2023-04-22T07:26:40;101.47;;;40.05;;
30036;SDS011;36325;51.512;-0.382;2023-04-22T07:29:09;92.40;;;38.28;;
30036;SDS011;36325;51.512;-0.382;2023-04-22T07:31:38;89.10;;;40.38;;
30036;SDS011;36325;51.512;-0.382;2023-04-22T07:34:05;82.45;;;39.25;;
30036;SDS011;36325;51.512;-0.382;2023-04-22T07:36:33;94.15;;;41.53;;
30036;SDS011;36325;51.512;-0.382;2023-04-22T07:39:00;95.68;;;38.90;;
30036;SDS011;36325;51.512;-0.382;2023-04-22T07:41:27;85.15;;;39.72;;
30036;SDS011;36325;51.512;-0.382;2023-04-22T07:43:55;88.50;;;38.50;;
30036;SDS011;36325;51.512;-0.382;2023-04-22T07:46:22;91.43;;;39.40;;
30036;SDS011;36325;51.512;-0.382;2023-04-22T07:48:49;91.63;;;41.20;;
30036;SDS011;36325;51.512;-0.382;2023-04-22T07:51:17;91.35;;;40.17;;
30036;SDS011;36325;51.512;-0.382;2023-04-22T07:53:45;97.30;;;40.00;;
30036;SDS011;36325;51.512;-0.382;2023-04-22T07:56:12;90.07;;;40.08;;
30036;SDS011;36325;51.512;-0.382;2023-04-22T07:58:40;89.93;;;39.22;;
30036;SDS011;36325;51.512;-0.382;2023-04-22T08:01:07;79.65;;;38.10;;
30036;SDS011;36325;51.512;-0.382;2023-04-22T08:03:34;91.90;;;41.92;;
30036;SDS011;36325;51.512;-0.382;2023-04-22T08:06:01;84.50;;;38.60;;
30036;SDS011;36325;51.512;-0.382;2023-04-22T08:08:29;93.15;;;42.15;;
30036;SDS011;36325;51.512;-0.382;2023-04-22T08:10:56;85.25;;;38.40;;
30036;SDS011;36325;51.512;-0.382;2023-04-22T08:13:23;88.15;;;39.03;;
30036;SDS011;36325;51.512;-0.382;2023-04-22T08:15:50;99.07;;;41.08;;
30036;SDS011;36325;51.512;-0.382;2023-04-22T08:18:18;89.55;;;38.80;;
30036;SDS011;36325;51.512;-0.382;2023-04-22T08:20:45;84.50;;;37.45;;
30036;SDS011;36325;51.512;-0.382;2023-04-22T08:23:13;98.78;;;42.17;;
30036;SDS011;36325;51.512;-0.382;2023-04-22T08:25:40;91.47;;;42.50;;
30036;SDS011;36325;51.512;-0.382;2023-04-22T08:28:08;95.97;;;42.10;;
30036;SDS011;36325;51.512;-0.382;2023-04-22T08:30:35;88.22;;;43.00;;
30036;SDS011;36325;51.512;-0.382;2023-04-22T08:33:02;94.03;;;42.33;;
30036;SDS011;36325;51.512;-0.382;2023-04-22T08:35:29;94.45;;;43.17;;
30036;SDS011;36325;51.512;-0.382;2023-04-22T08:37:57;86.30;;;40.20;;
30036;SDS011;36325;51.512;-0.382;2023-04-22T08:40:24;88.97;;;40.90;;
30036;SDS011;36325;51.512;-0.382;2023-04-22T08:42:51;90.97;;;42.10;;
30036;SDS011;36325;51.512;-0.382;2023-04-22T08:45:19;95.60;;;43.35;;
30036;SDS011;36325;51.512;-0.382;2023-04-22T08:47:50;95.72;;;40.40;;
30036;SDS011;36325;51.512;-0.382;2023-04-22T08:50:20;94.30;;;43.50;;
30036;SDS011;36325;51.512;-0.382;2023-04-22T08:52:51;95.10;;;42.42;;
30036;SDS011;36325;51.512;-0.382;2023-04-22T08:55:18;84.97;;;38.45;;
30036;SDS011;36325;51.512;-0.382;2023-04-22T08:57:46;87.68;;;39.30;;
30036;SDS011;36325;51.512;-0.382;2023-04-22T09:00:13;90.90;;;42.45;;
30036;SDS011;36325;51.512;-0.382;2023-04-22T09:02:41;90.53;;;40.75;;
30036;SDS011;36325;51.512;-0.382;2023-04-22T09:05:11;87.10;;;40.22;;
30036;SDS011;36325;51.512;-0.382;2023-04-22T09:07:40;90.80;;;40.13;;
30036;SDS011;36325;51.512;-0.382;2023-04-22T09:10:08;75.75;;;36.33;;
30036;SDS011;36325;51.512;-0.382;2023-04-22T09:12:38;86.68;;;38.80;;
30036;SDS011;36325;51.512;-0.382;2023-04-22T09:15:06;94.43;;;40.03;;
30036;SDS011;36325;51.512;-0.382;2023-04-22T09:17:35;82.25;;;37.50;;
30036;SDS011;36325;51.512;-0.382;2023-04-22T09:20:04;81.70;;;39.20;;
30036;SDS011;36325;51.512;-0.382;2023-04-22T09:22:39;80.15;;;37.72;;
30036;SDS011;36325;51.512;-0.382;2023-04-22T09:27:54;78.90;;;35.20;;
30036;SDS011;36325;51.512;-0.382;2023-04-22T09:30:24;86.10;;;39.60;;
30036;SDS011;36325;51.512;-0.382;2023-04-22T09:32:54;79.10;;;37.67;;
30036;SDS011;36325;51.512;-0.382;2023-04-22T09:37:53;74.82;;;36.58;;
30036;SDS011;36325;51.512;-0.382;2023-04-22T09:40:22;84.90;;;38.28;;
30036;SDS011;36325;51.512;-0.382;2023-04-22T09:42:51;71.95;;;36.63;;
30036;SDS011;36325;51.512;-0.382;2023-04-22T09:45:32;78.57;;;37.78;;
30036;SDS011;36325;51.512;-0.382;2023-04-22T09:50:38;68.82;;;34.28;;
30036;SDS011;36325;51.512;-0.382;2023-04-22T09:53:09;64.70;;;32.05;;
30036;SDS011;36325;51.512;-0.382;2023-04-22T09:55:42;57.72;;;29.50;;
30036;SDS011;36325;51.512;-0.382;2023-04-22T09:58:14;62.17;;;31.52;;
30036;SDS011;36325;51.512;-0.382;2023-04-22T10:00:44;64.07;;;32.30;;
30036;SDS011;36325;51.512;-0.382;2023-04-22T10:03:15;62.33;;;31.17;;
30036;SDS011;36325;51.512;-0.382;2023-04-22T10:05:43;67.15;;;33.08;;
30036;SDS011;36325;51.512;-0.382;2023-04-22T10:08:12;68.70;;;33.95;;
30036;SDS011;36325;51.512;-0.382;2023-04-22T10:10:40;74.68;;;37.60;;
30036;SDS011;36325;51.512;-0.382;2023-04-22T10:13:08;66.47;;;34.08;;
30036;SDS011;36325;51.512;-0.382;2023-04-22T10:15:47;71.75;;;36.47;;
30036;SDS011;36325;51.512;-0.382;2023-04-22T10:18:23;65.30;;;33.65;;
30036;SDS011;36325;51.512;-0.382;2023-04-22T10:20:53;60.65;;;31.23;;
30036;SDS011;36325;51.512;-0.382;2023-04-22T10:23:22;62.83;;;31.92;;
30036;SDS011;36325;51.512;-0.382;2023-04-22T10:25:54;58.33;;;31.45;;
30036;SDS011;36325;51.512;-0.382;2023-04-22T10:28:27;54.40;;;31.02;;
30036;SDS011;36325;51.512;-0.382;2023-04-22T10:30:55;57.45;;;32.22;;
30036;SDS011;36325;51.512;-0.382;2023-04-22T10:41:15;55.55;;;27.38;;
30036;SDS011;36325;51.512;-0.382;2023-04-22T10:43:51;50.13;;;27.75;;
30036;SDS011;36325;51.512;-0.382;2023-04-22T10:48:58;45.03;;;26.63;;
30036;SDS011;36325;51.512;-0.382;2023-04-22T10:51:42;46.63;;;26.35;;
30036;SDS011;36325;51.512;-0.382;2023-04-22T10:59:29;43.92;;;25.58;;
30036;SDS011;36325;51.512;-0.382;2023-04-22T11:02:00;43.85;;;23.65;;
30036;SDS011;36325;51.512;-0.382;2023-04-22T11:04:28;39.30;;;22.35;;
30036;SDS011;36325;51.512;-0.382;2023-04-22T11:10:29;32.72;;;20.10;;
30036;SDS011;36325;51.512;-0.382;2023-04-22T11:12:56;27.42;;;16.73;;
30036;SDS011;36325;51.512;-0.382;2023-04-22T11:15:24;36.67;;;21.13;;
30036;SDS011;36325;51.512;-0.382;2023-04-22T11:17:52;35.08;;;20.48;;
30036;SDS011;36325;51.512;-0.382;2023-04-22T11:20:20;32.70;;;19.13;;
30036;SDS011;36325;51.512;-0.382;2023-04-22T11:22:50;32.08;;;19.20;;
30036;SDS011;36325;51.512;-0.382;2023-04-22T11:25:19;32.73;;;18.30;;
30036;SDS011;36325;51.512;-0.382;2023-04-22T11:27:47;37.70;;;20.10;;
30036;SDS011;36325;51.512;-0.382;2023-04-22T11:30:15;32.65;;;17.85;;
30036;SDS011;36325;51.512;-0.382;2023-04-22T11:32:46;35.47;;;19.33;;
30036;SDS011;36325;51.512;-0.382;2023-04-22T11:35:19;35.67;;;20.60;;
30036;SDS011;36325;51.512;-0.382;2023-04-22T11:37:53;33.70;;;19.90;;
30036;SDS011;36325;51.512;-0.382;2023-04-22T11:40:23;29.70;;;18.15;;
30036;SDS011;36325;51.512;-0.382;2023-04-22T11:42:57;29.63;;;17.25;;
30036;SDS011;36325;51.512;-0.382;2023-04-22T11:45:27;30.50;;;18.83;;
30036;SDS011;36325;51.512;-0.382;2023-04-22T11:47:55;30.08;;;18.15;;
30036;SDS011;36325;51.512;-0.382;2023-04-22T11:50:24;28.40;;;17.23;;
30036;SDS011;36325;51.512;-0.382;2023-04-22T11:55:28;28.55;;;16.52;;
30036;SDS011;36325;51.512;-0.382;2023-04-22T11:58:06;26.20;;;16.92;;
30036;SDS011;36325;51.512;-0.382;2023-04-22T12:00:39;29.08;;;17.15;;
30036;SDS011;36325;51.512;-0.382;2023-04-22T12:05:43;24.25;;;16.02;;
30036;SDS011;36325;51.512;-0.382;2023-04-22T12:08:18;24.60;;;14.75;;
30036;SDS011;36325;51.512;-0.382;2023-04-22T12:10:51;28.23;;;15.43;;
30036;SDS011;36325;51.512;-0.382;2023-04-22T12:13:25;24.13;;;14.98;;
30036;SDS011;36325;51.512;-0.382;2023-04-22T12:15:57;25.13;;;14.73;;
30036;SDS011;36325;51.512;-0.382;2023-04-22T12:18:30;23.90;;;14.23;;
30036;SDS011;36325;51.512;-0.382;2023-04-22T12:21:00;20.25;;;13.95;;
30036;SDS011;36325;51.512;-0.382;2023-04-22T12:26:18;22.88;;;14.23;;
30036;SDS011;36325;51.512;-0.382;2023-04-22T12:28:49;23.73;;;13.50;;
30036;SDS011;36325;51.512;-0.382;2023-04-22T12:31:17;23.63;;;14.27;;
30036;SDS011;36325;51.512;-0.382;2023-04-22T12:33:44;25.23;;;13.85;;
30036;SDS011;36325;51.512;-0.382;2023-04-22T12:36:12;25.52;;;13.90;;
30036;SDS011;36325;51.512;-0.382;2023-04-22T12:38:40;23.45;;;14.32;;
30036;SDS011;36325;51.512;-0.382;2023-04-22T12:41:07;24.27;;;14.93;;
30036;SDS011;36325;51.512;-0.382;2023-04-22T12:43:35;27.98;;;14.65;;
30036;SDS011;36325;51.512;-0.382;2023-04-22T12:46:03;21.00;;;12.38;;
30036;SDS011;36325;51.512;-0.382;2023-04-22T12:48:31;24.83;;;13.23;;
30036;SDS011;36325;51.512;-0.382;2023-04-22T12:50:59;19.13;;;12.20;;
30036;SDS011;36325;51.512;-0.382;2023-04-22T12:53:26;24.05;;;13.95;;
30036;SDS011;36325;51.512;-0.382;2023-04-22T12:55:54;21.27;;;12.27;;
30036;SDS011;36325;51.512;-0.382;2023-04-22T12:58:21;26.35;;;13.55;;
30036;SDS011;36325;51.512;-0.382;2023-04-22T13:00:49;22.20;;;12.68;;
30036;SDS011;36325;51.512;-0.382;2023-04-22T13:03:16;18.45;;;11.32;;
30036;SDS011;36325;51.512;-0.382;2023-04-22T13:05:44;20.00;;;11.85;;
30036;SDS011;36325;51.512;-0.382;2023-04-22T13:08:11;24.23;;;13.05;;
30036;SDS011;36325;51.512;-0.382;2023-04-22T13:10:38;19.67;;;12.20;;
30036;SDS011;36325;51.512;-0.382;2023-04-22T13:13:05;19.27;;;12.48;;
30036;SDS011;36325;51.512;-0.382;2023-04-22T13:15:37;18.37;;;12.20;;
30036;SDS011;36325;51.512;-0.382;2023-04-22T13:18:04;18.83;;;12.40;;
30036;SDS011;36325;51.512;-0.382;2023-04-22T13:20:32;20.60;;;12.80;;
30036;SDS011;36325;51.512;-0.382;2023-04-22T13:22:59;25.48;;;13.50;;
30036;SDS011;36325;51.512;-0.382;2023-04-22T13:25:27;21.27;;;13.40;;
30036;SDS011;36325;51.512;-0.382;2023-04-22T13:27:54;21.30;;;12.68;;
30036;SDS011;36325;51.512;-0.382;2023-04-22T13:30:21;19.77;;;12.07;;
30036;SDS011;36325;51.512;-0.382;2023-04-22T13:32:49;21.45;;;12.30;;
30036;SDS011;36325;51.512;-0.382;2023-04-22T13:35:17;19.27;;;12.48;;
30036;SDS011;36325;51.512;-0.382;2023-04-22T13:37:45;25.20;;;12.25;;
30036;SDS011;36325;51.512;-0.382;2023-04-22T13:40:12;21.08;;;12.40;;
30036;SDS011;36325;51.512;-0.382;2023-04-22T13:42:39;23.35;;;12.07;;
30036;SDS011;36325;51.512;-0.382;2023-04-22T13:45:07;22.83;;;12.57;;
30036;SDS011;36325;51.512;-0.382;2023-04-22T13:47:34;24.25;;;12.95;;
30036;SDS011;36325;51.512;-0.382;2023-04-22T13:50:02;28.92;;;12.10;;
30036;SDS011;36325;51.512;-0.382;2023-04-22T13:52:31;21.98;;;12.48;;
30036;SDS011;36325;51.512;-0.382;2023-04-22T13:55:01;24.67;;;13.02;;
30036;SDS011;36325;51.512;-0.382;2023-04-22T13:57:28;20.10;;;10.85;;
30036;SDS011;36325;51.512;-0.382;2023-04-22T13:59:56;17.50;;;11.27;;
30036;SDS011;36325;51.512;-0.382;2023-04-22T14:02:23;15.80;;;11.02;;
30036;SDS011;36325;51.512;-0.382;2023-04-22T14:04:50;19.70;;;11.38;;
30036;SDS011;36325;51.512;-0.382;2023-04-22T14:07:18;19.38;;;11.50;;
30036;SDS011;36325;51.512;-0.382;2023-04-22T14:09:45;19.30;;;12.05;;
30036;SDS011;36325;51.512;-0.382;2023-04-22T14:12:12;19.85;;;12.65;;
30036;SDS011;36325;51.512;-0.382;2023-04-22T14:14:40;24.17;;;12.35;;
30036;SDS011;36325;51.512;-0.382;2023-04-22T14:17:07;19.75;;;12.38;;
30036;SDS011;36325;51.512;-0.382;2023-04-22T14:19:34;19.63;;;11.07;;
30036;SDS011;36325;51.512;-0.382;2023-04-22T14:22:04;21.83;;;12.48;;
30036;SDS011;36325;51.512;-0.382;2023-04-22T14:24:32;21.25;;;12.75;;
30036;SDS011;36325;51.512;-0.382;2023-04-22T14:26:59;19.50;;;12.40;;
30036;SDS011;36325;51.512;-0.382;2023-04-22T14:29:29;19.40;;;13.27;;
30036;SDS011;36325;51.512;-0.382;2023-04-22T14:31:57;17.80;;;11.68;;
30036;SDS011;36325;51.512;-0.382;2023-04-22T14:34:24;24.13;;;11.65;;
30036;SDS011;36325;51.512;-0.382;2023-04-22T14:36:55;20.65;;;12.18;;
30036;SDS011;36325;51.512;-0.382;2023-04-22T14:39:22;21.30;;;12.35;;
30036;SDS011;36325;51.512;-0.382;2023-04-22T14:41:49;22.05;;;12.48;;
30036;SDS011;36325;51.512;-0.382;2023-04-22T14:44:17;25.38;;;13.40;;
30036;SDS011;36325;51.512;-0.382;2023-04-22T14:46:45;21.38;;;11.85;;
30036;SDS011;36325;51.512;-0.382;2023-04-22T14:49:12;18.52;;;11.00;;
30036;SDS011;36325;51.512;-0.382;2023-04-22T14:51:39;16.67;;;10.68;;